PWSweather.com
Personal Weather Stations
Station Observations
KMAWOBUR2
West Side, Woburn, MA 01801

West SideWoburn, MA 01801

Lat: 42.458, Lon: -71.1955

Elevation: 160

Station Type: DAVIS/Vantage Pro2

http://pauland.net

High Low Average
Temperature 31.9°F-0.1°C 16.1°F-8.8°C 23.6°F-4.7°C
Dew Point 31.1°F-0.5°C 13.2°F-10.4°C 21.7°F-5.7°C
Winds 11.0 mph 17.7 kmh 1.0 mph 1.6 kmh 4.0 mph NE6.4 kmh NE
Wind Gusts 21.0 mph33.8 kmh 1.0 mph1.6 kmh 8.0 mph12.9 kmh
Humidity 97% 87% 92%
Pressure 30.18 in1022.0 mb 29.21 in989.2 mb -
Precipitation 0.00 in0.0 mm - -
Hour Temp Dew Point Humidity Winds Wind Gusts Pressure Precip Precip Rate Daily Precip Total
12:00 AM 26.1°F-3.3°C 22.8°F-5.1°C 87% 5.0 mph ESE8.0 kmh ESE 9.0 mph14.5 kmh 30.18 in1022.0 mb 0.00 in0.0 mm 0.00 in0.0 mm 0.00 in0.0 mm
12:05 AM 26.3°F-3.2°C 23.2°F-4.9°C 88% 4.0 mph ESE6.4 kmh ESE 9.0 mph14.5 kmh 30.18 in1022.0 mb 0.00 in0.0 mm 0.00 in0.0 mm 0.00 in0.0 mm
12:10 AM 26.3°F-3.2°C 23.2°F-4.9°C 88% 4.0 mph ESE6.4 kmh ESE 8.0 mph12.9 kmh 30.18 in1022.0 mb 0.00 in0.0 mm 0.00 in0.0 mm 0.00 in0.0 mm
12:15 AM 26.3°F-3.2°C 23.2°F-4.9°C 88% 5.0 mph E8.0 kmh E 11.0 mph17.7 kmh 30.18 in1022.0 mb 0.00 in0.0 mm 0.00 in0.0 mm 0.00 in0.0 mm
12:20 AM 26.3°F-3.2°C 23.2°F-4.9°C 88% 1.0 mph ESE1.6 kmh ESE 1.0 mph1.6 kmh 30.18 in1022.0 mb 0.00 in0.0 mm 0.00 in0.0 mm 0.00 in0.0 mm
12:25 AM 26.4°F-3.1°C 23.3°F-4.8°C 88% 6.0 mph SE9.7 kmh SE 13.0 mph20.9 kmh 30.18 in1022.0 mb 0.00 in0.0 mm 0.00 in0.0 mm 0.00 in0.0 mm
12:30 AM 26.4°F-3.1°C 23.6°F-4.7°C 89% 4.0 mph ESE6.4 kmh ESE 7.0 mph11.3 kmh 30.18 in1022.0 mb 0.00 in0.0 mm 0.00 in0.0 mm 0.00 in0.0 mm
12:35 AM 26.4°F-3.1°C 23.6°F-4.7°C 89% 4.0 mph E6.4 kmh E 10.0 mph16.1 kmh 30.18 in1022.0 mb 0.00 in0.0 mm 0.00 in0.0 mm 0.00 in0.0 mm
12:40 AM 26.4°F-3.1°C 23.6°F-4.7°C 89% 5.0 mph ESE8.0 kmh ESE 15.0 mph24.1 kmh 30.18 in1022.0 mb 0.00 in0.0 mm 0.00 in0.0 mm 0.00 in0.0 mm
12:45 AM 26.6°F-3.0°C 23.8°F-4.6°C 89% 4.0 mph ESE6.4 kmh ESE 10.0 mph16.1 kmh 30.18 in1022.0 mb 0.00 in0.0 mm 0.00 in0.0 mm 0.00 in0.0 mm
12:50 AM 26.6°F-3.0°C 23.8°F-4.6°C 89% 5.0 mph E8.0 kmh E 10.0 mph16.1 kmh 30.18 in1022.0 mb 0.00 in0.0 mm 0.00 in0.0 mm 0.00 in0.0 mm
12:55 AM 26.6°F-3.0°C 24.1°F-4.4°C 90% 4.0 mph NE6.4 kmh NE 8.0 mph12.9 kmh 30.18 in1022.0 mb 0.00 in0.0 mm 0.00 in0.0 mm 0.00 in0.0 mm
01:00 AM 26.7°F-2.9°C 24.2°F-4.3°C 90% 5.0 mph E8.0 kmh E 9.0 mph14.5 kmh 30.17 in1021.7 mb 0.00 in0.0 mm 0.00 in0.0 mm 0.00 in0.0 mm
01:05 AM 26.7°F-2.9°C 24.2°F-4.3°C 90% 3.0 mph ESE4.8 kmh ESE 9.0 mph14.5 kmh 30.17 in1021.7 mb 0.00 in0.0 mm 0.00 in0.0 mm 0.00 in0.0 mm
01:10 AM 26.9°F-2.8°C 24.4°F-4.2°C 90% 3.0 mph E4.8 kmh E 7.0 mph11.3 kmh 30.17 in1021.7 mb 0.00 in0.0 mm 0.00 in0.0 mm 0.00 in0.0 mm
01:15 AM 26.9°F-2.8°C 24.4°F-4.2°C 90% 3.0 mph ESE4.8 kmh ESE 7.0 mph11.3 kmh 30.17 in1021.7 mb 0.00 in0.0 mm 0.00 in0.0 mm 0.00 in0.0 mm
01:20 AM 26.9°F-2.8°C 24.4°F-4.2°C 90% 4.0 mph ESE6.4 kmh ESE 10.0 mph16.1 kmh 30.17 in1021.7 mb 0.00 in0.0 mm 0.00 in0.0 mm 0.00 in0.0 mm
01:25 AM 26.9°F-2.8°C 24.4°F-4.2°C 90% 3.0 mph ESE4.8 kmh ESE 8.0 mph12.9 kmh 30.17 in1021.7 mb 0.00 in0.0 mm 0.00 in0.0 mm 0.00 in0.0 mm
01:30 AM 27.0°F-2.8°C 24.5°F-4.2°C 90% 5.0 mph SE8.0 kmh SE 8.0 mph12.9 kmh 30.17 in1021.7 mb 0.00 in0.0 mm 0.00 in0.0 mm 0.00 in0.0 mm
01:35 AM 27.0°F-2.8°C 24.7°F-4.1°C 91% 4.0 mph ESE6.4 kmh ESE 9.0 mph14.5 kmh 30.17 in1021.7 mb 0.00 in0.0 mm 0.00 in0.0 mm 0.00 in0.0 mm
01:40 AM 27.0°F-2.8°C 24.7°F-4.1°C 91% 4.0 mph ESE6.4 kmh ESE 9.0 mph14.5 kmh 30.17 in1021.7 mb 0.00 in0.0 mm 0.00 in0.0 mm 0.00 in0.0 mm
01:45 AM 27.0°F-2.8°C 24.7°F-4.1°C 91% 3.0 mph ESE4.8 kmh ESE 8.0 mph12.9 kmh 30.16 in1021.3 mb 0.00 in0.0 mm 0.00 in0.0 mm 0.00 in0.0 mm
01:50 AM 27.0°F-2.8°C 24.7°F-4.1°C 91% 3.0 mph ESE4.8 kmh ESE 11.0 mph17.7 kmh 30.16 in1021.3 mb 0.00 in0.0 mm 0.00 in0.0 mm 0.00 in0.0 mm
01:55 AM 27.0°F-2.8°C 24.7°F-4.1°C 91% 4.0 mph SE6.4 kmh SE 10.0 mph16.1 kmh 30.16 in1021.3 mb 0.00 in0.0 mm 0.00 in0.0 mm 0.00 in0.0 mm
02:00 AM 27.0°F-2.8°C 24.7°F-4.1°C 91% 5.0 mph SE8.0 kmh SE 11.0 mph17.7 kmh 30.15 in1021.0 mb 0.00 in0.0 mm 0.00 in0.0 mm 0.00 in0.0 mm
02:05 AM 27.0°F-2.8°C 24.7°F-4.1°C 91% 5.0 mph ESE8.0 kmh ESE 11.0 mph17.7 kmh 30.15 in1021.0 mb 0.00 in0.0 mm 0.00 in0.0 mm 0.00 in0.0 mm
02:10 AM 27.0°F-2.8°C 24.7°F-4.1°C 91% 4.0 mph ESE6.4 kmh ESE 9.0 mph14.5 kmh 30.15 in1021.0 mb 0.00 in0.0 mm 0.00 in0.0 mm 0.00 in0.0 mm
02:15 AM 27.0°F-2.8°C 24.7°F-4.1°C 91% 5.0 mph ESE8.0 kmh ESE 10.0 mph16.1 kmh 30.14 in1020.7 mb 0.00 in0.0 mm 0.00 in0.0 mm 0.00 in0.0 mm
02:20 AM 27.0°F-2.8°C 24.7°F-4.1°C 91% 5.0 mph E8.0 kmh E 10.0 mph16.1 kmh 30.14 in1020.7 mb 0.00 in0.0 mm 0.00 in0.0 mm 0.00 in0.0 mm
02:25 AM 27.0°F-2.8°C 25.0°F-3.9°C 92% 4.0 mph E6.4 kmh E 8.0 mph12.9 kmh 30.14 in1020.7 mb 0.00 in0.0 mm 0.00 in0.0 mm 0.00 in0.0 mm
02:30 AM 27.0°F-2.8°C 25.0°F-3.9°C 92% 5.0 mph ESE8.0 kmh ESE 10.0 mph16.1 kmh 30.12 in1020.0 mb 0.00 in0.0 mm 0.00 in0.0 mm 0.00 in0.0 mm
02:35 AM 27.0°F-2.8°C 25.0°F-3.9°C 92% 5.0 mph ESE8.0 kmh ESE 13.0 mph20.9 kmh 30.12 in1020.0 mb 0.00 in0.0 mm 0.00 in0.0 mm 0.00 in0.0 mm
02:40 AM 27.0°F-2.8°C 25.0°F-3.9°C 92% 4.0 mph ESE6.4 kmh ESE 9.0 mph14.5 kmh 30.12 in1020.0 mb 0.00 in0.0 mm 0.00 in0.0 mm 0.00 in0.0 mm
02:45 AM 26.9°F-2.8°C 24.9°F-3.9°C 92% 4.0 mph SE6.4 kmh SE 9.0 mph14.5 kmh 30.11 in1019.6 mb 0.00 in0.0 mm 0.00 in0.0 mm 0.00 in0.0 mm
02:50 AM 26.9°F-2.8°C 24.9°F-3.9°C 92% 6.0 mph ESE9.7 kmh ESE 14.0 mph22.5 kmh 30.11 in1019.6 mb 0.00 in0.0 mm 0.00 in0.0 mm 0.00 in0.0 mm
02:55 AM 26.9°F-2.8°C 24.9°F-3.9°C 92% 4.0 mph SE6.4 kmh SE 12.0 mph19.3 kmh 30.11 in1019.6 mb 0.00 in0.0 mm 0.00 in0.0 mm 0.00 in0.0 mm
03:00 AM 26.9°F-2.8°C 24.9°F-3.9°C 92% 3.0 mph E4.8 kmh E 7.0 mph11.3 kmh 30.10 in1019.3 mb 0.00 in0.0 mm 0.00 in0.0 mm 0.00 in0.0 mm
03:05 AM 26.9°F-2.8°C 24.9°F-3.9°C 92% 5.0 mph NE8.0 kmh NE 15.0 mph24.1 kmh 30.10 in1019.3 mb 0.00 in0.0 mm 0.00 in0.0 mm 0.00 in0.0 mm
03:10 AM 26.9°F-2.8°C 24.9°F-3.9°C 92% 4.0 mph E6.4 kmh E 11.0 mph17.7 kmh 30.10 in1019.3 mb 0.00 in0.0 mm 0.00 in0.0 mm 0.00 in0.0 mm
03:15 AM 27.0°F-2.8°C 25.0°F-3.9°C 92% 5.0 mph ESE8.0 kmh ESE 12.0 mph19.3 kmh 30.09 in1019.0 mb 0.00 in0.0 mm 0.00 in0.0 mm 0.00 in0.0 mm
03:20 AM 27.0°F-2.8°C 25.0°F-3.9°C 92% 4.0 mph E6.4 kmh E 9.0 mph14.5 kmh 30.09 in1019.0 mb 0.00 in0.0 mm 0.00 in0.0 mm 0.00 in0.0 mm
03:25 AM 27.0°F-2.8°C 25.3°F-3.7°C 93% 5.0 mph E8.0 kmh E 11.0 mph17.7 kmh 30.09 in1019.0 mb 0.00 in0.0 mm 0.00 in0.0 mm 0.00 in0.0 mm
03:30 AM 27.2°F-2.7°C 25.4°F-3.7°C 93% 4.0 mph E6.4 kmh E 9.0 mph14.5 kmh 30.10 in1019.3 mb 0.00 in0.0 mm 0.00 in0.0 mm 0.00 in0.0 mm
03:35 AM 27.2°F-2.7°C 25.4°F-3.7°C 93% 4.0 mph E6.4 kmh E 9.0 mph14.5 kmh 30.10 in1019.3 mb 0.00 in0.0 mm 0.00 in0.0 mm 0.00 in0.0 mm
03:40 AM 27.3°F-2.6°C 25.5°F-3.6°C 93% 5.0 mph ESE8.0 kmh ESE 8.0 mph12.9 kmh 30.10 in1019.3 mb 0.00 in0.0 mm 0.00 in0.0 mm 0.00 in0.0 mm
03:45 AM 27.3°F-2.6°C 25.5°F-3.6°C 93% 3.0 mph ESE4.8 kmh ESE 7.0 mph11.3 kmh 30.10 in1019.3 mb 0.00 in0.0 mm 0.00 in0.0 mm 0.00 in0.0 mm
03:50 AM 27.3°F-2.6°C 25.5°F-3.6°C 93% 2.0 mph ESE3.2 kmh ESE 5.0 mph8.0 kmh 30.10 in1019.3 mb 0.00 in0.0 mm 0.00 in0.0 mm 0.00 in0.0 mm
03:55 AM 27.2°F-2.7°C 25.4°F-3.7°C 93% 3.0 mph ESE4.8 kmh ESE 6.0 mph9.7 kmh 30.10 in1019.3 mb 0.00 in0.0 mm 0.00 in0.0 mm 0.00 in0.0 mm
04:00 AM 27.0°F-2.8°C 25.3°F-3.7°C 93% 2.0 mph E3.2 kmh E 5.0 mph8.0 kmh 30.09 in1019.0 mb 0.00 in0.0 mm 0.00 in0.0 mm 0.00 in0.0 mm
04:05 AM 27.0°F-2.8°C 25.3°F-3.7°C 93% 1.0 mph E1.6 kmh E 5.0 mph8.0 kmh 30.09 in1019.0 mb 0.00 in0.0 mm 0.00 in0.0 mm 0.00 in0.0 mm
04:10 AM 26.9°F-2.8°C 25.2°F-3.8°C 93% 3.0 mph E4.8 kmh E 7.0 mph11.3 kmh 30.09 in1019.0 mb 0.00 in0.0 mm 0.00 in0.0 mm 0.00 in0.0 mm
04:15 AM 26.9°F-2.8°C 25.2°F-3.8°C 93% 2.0 mph E3.2 kmh E 6.0 mph9.7 kmh 30.08 in1018.6 mb 0.00 in0.0 mm 0.00 in0.0 mm 0.00 in0.0 mm
04:20 AM 26.9°F-2.8°C 25.2°F-3.8°C 93% 3.0 mph E4.8 kmh E 7.0 mph11.3 kmh 30.08 in1018.6 mb 0.00 in0.0 mm 0.00 in0.0 mm 0.00 in0.0 mm
04:25 AM 26.9°F-2.8°C 25.2°F-3.8°C 93% 2.0 mph E3.2 kmh E 5.0 mph8.0 kmh 30.08 in1018.6 mb 0.00 in0.0 mm 0.00 in0.0 mm 0.00 in0.0 mm
04:30 AM 26.9°F-2.8°C 25.2°F-3.8°C 93% 2.0 mph E3.2 kmh E 5.0 mph8.0 kmh 30.07 in1018.3 mb 0.00 in0.0 mm 0.00 in0.0 mm 0.00 in0.0 mm
04:35 AM 27.0°F-2.8°C 25.3°F-3.7°C 93% 2.0 mph ENE3.2 kmh ENE 6.0 mph9.7 kmh 30.07 in1018.3 mb 0.00 in0.0 mm 0.00 in0.0 mm 0.00 in0.0 mm
04:40 AM 27.0°F-2.8°C 25.3°F-3.7°C 93% 2.0 mph ENE3.2 kmh ENE 6.0 mph9.7 kmh 30.07 in1018.3 mb 0.00 in0.0 mm 0.00 in0.0 mm 0.00 in0.0 mm
04:45 AM 27.0°F-2.8°C 25.3°F-3.7°C 93% 2.0 mph 3.2 kmh 5.0 mph8.0 kmh 30.06 in1017.9 mb 0.00 in0.0 mm 0.00 in0.0 mm 0.00 in0.0 mm
04:50 AM 27.2°F-2.7°C 25.4°F-3.7°C 93% 2.0 mph NE3.2 kmh NE 5.0 mph8.0 kmh 30.06 in1017.9 mb 0.00 in0.0 mm 0.00 in0.0 mm 0.00 in0.0 mm
04:55 AM 27.2°F-2.7°C 25.4°F-3.7°C 93% 2.0 mph E3.2 kmh E 6.0 mph9.7 kmh 30.06 in1017.9 mb 0.00 in0.0 mm 0.00 in0.0 mm 0.00 in0.0 mm
05:00 AM 27.3°F-2.6°C 25.8°F-3.4°C 94% 3.0 mph E4.8 kmh E 7.0 mph11.3 kmh 30.05 in1017.6 mb 0.00 in0.0 mm 0.00 in0.0 mm 0.00 in0.0 mm
05:05 AM 27.3°F-2.6°C 25.8°F-3.4°C 94% 2.0 mph ENE3.2 kmh ENE 6.0 mph9.7 kmh 30.05 in1017.6 mb 0.00 in0.0 mm 0.00 in0.0 mm 0.00 in0.0 mm
05:10 AM 27.5°F-2.5°C 26.0°F-3.3°C 94% 1.0 mph ENE1.6 kmh ENE 7.0 mph11.3 kmh 30.05 in1017.6 mb 0.00 in0.0 mm 0.00 in0.0 mm 0.00 in0.0 mm
05:15 AM 27.5°F-2.5°C 26.0°F-3.3°C 94% 3.0 mph E4.8 kmh E 9.0 mph14.5 kmh 30.03 in1016.9 mb 0.00 in0.0 mm 0.00 in0.0 mm 0.00 in0.0 mm
05:20 AM 27.5°F-2.5°C 26.0°F-3.3°C 94% 3.0 mph E4.8 kmh E 8.0 mph12.9 kmh 30.03 in1016.9 mb 0.00 in0.0 mm 0.00 in0.0 mm 0.00 in0.0 mm
05:25 AM 27.6°F-2.4°C 26.1°F-3.3°C 94% 4.0 mph E6.4 kmh E 9.0 mph14.5 kmh 30.03 in1016.9 mb 0.00 in0.0 mm 0.00 in0.0 mm 0.00 in0.0 mm
05:30 AM 27.6°F-2.4°C 26.1°F-3.3°C 94% 5.0 mph E8.0 kmh E 10.0 mph16.1 kmh 30.01 in1016.3 mb 0.00 in0.0 mm 0.00 in0.0 mm 0.00 in0.0 mm
05:35 AM 27.6°F-2.4°C 26.1°F-3.3°C 94% 2.0 mph ESE3.2 kmh ESE 8.0 mph12.9 kmh 30.01 in1016.3 mb 0.00 in0.0 mm 0.00 in0.0 mm 0.00 in0.0 mm
05:40 AM 27.6°F-2.4°C 26.1°F-3.3°C 94% 4.0 mph E6.4 kmh E 8.0 mph12.9 kmh 30.01 in1016.3 mb 0.00 in0.0 mm 0.00 in0.0 mm 0.00 in0.0 mm
05:45 AM 27.8°F-2.3°C 26.3°F-3.2°C 94% 3.0 mph E4.8 kmh E 7.0 mph11.3 kmh 30.00 in1015.9 mb 0.00 in0.0 mm 0.00 in0.0 mm 0.00 in0.0 mm
05:50 AM 27.8°F-2.3°C 26.3°F-3.2°C 94% 3.0 mph E4.8 kmh E 10.0 mph16.1 kmh 30.00 in1015.9 mb 0.00 in0.0 mm 0.00 in0.0 mm 0.00 in0.0 mm
05:55 AM 27.9°F-2.3°C 26.4°F-3.1°C 94% 4.0 mph E6.4 kmh E 10.0 mph16.1 kmh 30.00 in1015.9 mb 0.00 in0.0 mm 0.00 in0.0 mm 0.00 in0.0 mm
06:00 AM 27.9°F-2.3°C 26.4°F-3.1°C 94% 4.0 mph E6.4 kmh E 10.0 mph16.1 kmh 29.98 in1015.2 mb 0.00 in0.0 mm 0.00 in0.0 mm 0.00 in0.0 mm
06:05 AM 27.9°F-2.3°C 26.4°F-3.1°C 94% 5.0 mph E8.0 kmh E 11.0 mph17.7 kmh 29.98 in1015.2 mb 0.00 in0.0 mm 0.00 in0.0 mm 0.00 in0.0 mm
06:10 AM 27.9°F-2.3°C 26.4°F-3.1°C 94% 3.0 mph ENE4.8 kmh ENE 10.0 mph16.1 kmh 29.98 in1015.2 mb 0.00 in0.0 mm 0.00 in0.0 mm 0.00 in0.0 mm
06:15 AM 27.9°F-2.3°C 26.4°F-3.1°C 94% 4.0 mph E6.4 kmh E 11.0 mph17.7 kmh 29.95 in1014.2 mb 0.00 in0.0 mm 0.00 in0.0 mm 0.00 in0.0 mm
06:20 AM 27.9°F-2.3°C 26.4°F-3.1°C 94% 4.0 mph E6.4 kmh E 8.0 mph12.9 kmh 29.95 in1014.2 mb 0.00 in0.0 mm 0.00 in0.0 mm 0.00 in0.0 mm
06:25 AM 28.1°F-2.2°C 26.9°F-2.8°C 95% 4.0 mph ENE6.4 kmh ENE 13.0 mph20.9 kmh 29.95 in1014.2 mb 0.00 in0.0 mm 0.00 in0.0 mm 0.00 in0.0 mm
06:30 AM 28.2°F-2.1°C 27.0°F-2.8°C 95% 4.0 mph E6.4 kmh E 9.0 mph14.5 kmh 29.96 in1014.6 mb 0.00 in0.0 mm 0.00 in0.0 mm 0.00 in0.0 mm
06:35 AM 28.2°F-2.1°C 27.0°F-2.8°C 95% 4.0 mph E6.4 kmh E 9.0 mph14.5 kmh 29.96 in1014.6 mb 0.00 in0.0 mm 0.00 in0.0 mm 0.00 in0.0 mm
06:40 AM 28.4°F-2.0°C 27.2°F-2.7°C 95% 4.0 mph E6.4 kmh E 11.0 mph17.7 kmh 29.96 in1014.6 mb 0.00 in0.0 mm 0.00 in0.0 mm 0.00 in0.0 mm
06:45 AM 28.5°F-1.9°C 27.3°F-2.6°C 95% 4.0 mph E6.4 kmh E 11.0 mph17.7 kmh 29.95 in1014.2 mb 0.00 in0.0 mm 0.00 in0.0 mm 0.00 in0.0 mm
06:50 AM 28.7°F-1.8°C 27.5°F-2.5°C 95% 4.0 mph E6.4 kmh E 8.0 mph12.9 kmh 29.95 in1014.2 mb 0.00 in0.0 mm 0.00 in0.0 mm 0.00 in0.0 mm
06:55 AM 28.8°F-1.8°C 27.6°F-2.4°C 95% 7.0 mph E11.3 kmh E 14.0 mph22.5 kmh 29.95 in1014.2 mb 0.00 in0.0 mm 0.00 in0.0 mm 0.00 in0.0 mm
07:00 AM 29.1°F-1.6°C 27.9°F-2.3°C 95% 6.0 mph SE9.7 kmh SE 11.0 mph17.7 kmh 29.93 in1013.5 mb 0.00 in0.0 mm 0.00 in0.0 mm 0.00 in0.0 mm
07:05 AM 29.3°F-1.5°C 28.0°F-2.2°C 95% 8.0 mph SE12.9 kmh SE 16.0 mph25.7 kmh 29.93 in1013.5 mb 0.00 in0.0 mm 0.00 in0.0 mm 0.00 in0.0 mm
07:10 AM 29.3°F-1.5°C 28.0°F-2.2°C 95% 9.0 mph SE14.5 kmh SE 16.0 mph25.7 kmh 29.93 in1013.5 mb 0.00 in0.0 mm 0.00 in0.0 mm 0.00 in0.0 mm
07:15 AM 29.1°F-1.6°C 27.9°F-2.3°C 95% 8.0 mph ESE12.9 kmh ESE 14.0 mph22.5 kmh 29.92 in1013.2 mb 0.00 in0.0 mm 0.00 in0.0 mm 0.00 in0.0 mm
07:20 AM 29.1°F-1.6°C 27.9°F-2.3°C 95% 7.0 mph SE11.3 kmh SE 15.0 mph24.1 kmh 29.92 in1013.2 mb 0.00 in0.0 mm 0.00 in0.0 mm 0.00 in0.0 mm
07:25 AM 29.1°F-1.6°C 27.9°F-2.3°C 95% 5.0 mph E8.0 kmh E 11.0 mph17.7 kmh 29.92 in1013.2 mb 0.00 in0.0 mm 0.00 in0.0 mm 0.00 in0.0 mm
07:30 AM 29.0°F-1.7°C 27.8°F-2.3°C 95% 6.0 mph ESE9.7 kmh ESE 14.0 mph22.5 kmh 29.91 in1012.9 mb 0.00 in0.0 mm 0.00 in0.0 mm 0.00 in0.0 mm
07:35 AM 28.8°F-1.8°C 27.6°F-2.4°C 95% 7.0 mph E11.3 kmh E 15.0 mph24.1 kmh 29.91 in1012.9 mb 0.00 in0.0 mm 0.00 in0.0 mm 0.00 in0.0 mm
07:40 AM 28.8°F-1.8°C 27.6°F-2.4°C 95% 5.0 mph SE8.0 kmh SE 15.0 mph24.1 kmh 29.91 in1012.9 mb 0.00 in0.0 mm 0.00 in0.0 mm 0.00 in0.0 mm
07:45 AM 28.8°F-1.8°C 27.6°F-2.4°C 95% 6.0 mph E9.7 kmh E 12.0 mph19.3 kmh 29.89 in1012.2 mb 0.00 in0.0 mm 0.00 in0.0 mm 0.00 in0.0 mm
07:50 AM 28.8°F-1.8°C 27.6°F-2.4°C 95% 5.0 mph E8.0 kmh E 9.0 mph14.5 kmh 29.89 in1012.2 mb 0.00 in0.0 mm 0.00 in0.0 mm 0.00 in0.0 mm
07:55 AM 28.8°F-1.8°C 27.6°F-2.4°C 95% 5.0 mph ESE8.0 kmh ESE 12.0 mph19.3 kmh 29.89 in1012.2 mb 0.00 in0.0 mm 0.00 in0.0 mm 0.00 in0.0 mm
08:00 AM 29.0°F-1.7°C 27.8°F-2.3°C 95% 7.0 mph SE11.3 kmh SE 14.0 mph22.5 kmh 29.89 in1012.2 mb 0.00 in0.0 mm 0.00 in0.0 mm 0.00 in0.0 mm
08:05 AM 29.1°F-1.6°C 27.9°F-2.3°C 95% 11.0 mph E17.7 kmh E 21.0 mph33.8 kmh 29.89 in1012.2 mb 0.00 in0.0 mm 0.00 in0.0 mm 0.00 in0.0 mm
08:10 AM 29.1°F-1.6°C 27.9°F-2.3°C 95% 7.0 mph E11.3 kmh E 17.0 mph27.4 kmh 29.89 in1012.2 mb 0.00 in0.0 mm 0.00 in0.0 mm 0.00 in0.0 mm
08:15 AM 29.1°F-1.6°C 28.1°F-2.2°C 96% 8.0 mph ESE12.9 kmh ESE 17.0 mph27.4 kmh 29.86 in1011.2 mb 0.00 in0.0 mm 0.00 in0.0 mm 0.00 in0.0 mm
08:20 AM 29.1°F-1.6°C 28.1°F-2.2°C 96% 7.0 mph E11.3 kmh E 14.0 mph22.5 kmh 29.86 in1011.2 mb 0.00 in0.0 mm 0.00 in0.0 mm 0.00 in0.0 mm
08:25 AM 29.1°F-1.6°C 28.1°F-2.2°C 96% 9.0 mph SE14.5 kmh SE 16.0 mph25.7 kmh 29.86 in1011.2 mb 0.00 in0.0 mm 0.00 in0.0 mm 0.00 in0.0 mm
08:30 AM 29.1°F-1.6°C 28.1°F-2.2°C 96% 8.0 mph SE12.9 kmh SE 17.0 mph27.4 kmh 29.85 in1010.8 mb 0.00 in0.0 mm 0.00 in0.0 mm 0.00 in0.0 mm
08:35 AM 29.3°F-1.5°C 28.3°F-2.1°C 96% 6.0 mph ESE9.7 kmh ESE 14.0 mph22.5 kmh 29.85 in1010.8 mb 0.00 in0.0 mm 0.00 in0.0 mm 0.00 in0.0 mm
08:40 AM 29.3°F-1.5°C 28.3°F-2.1°C 96% 6.0 mph SE9.7 kmh SE 14.0 mph22.5 kmh 29.85 in1010.8 mb 0.00 in0.0 mm 0.00 in0.0 mm 0.00 in0.0 mm
08:45 AM 29.3°F-1.5°C 28.3°F-2.1°C 96% 8.0 mph ESE12.9 kmh ESE 14.0 mph22.5 kmh 29.83 in1010.2 mb 0.00 in0.0 mm 0.00 in0.0 mm 0.00 in0.0 mm
08:50 AM 29.3°F-1.5°C 28.3°F-2.1°C 96% 6.0 mph E9.7 kmh E 15.0 mph24.1 kmh 29.83 in1010.2 mb 0.00 in0.0 mm 0.00 in0.0 mm 0.00 in0.0 mm
08:55 AM 29.3°F-1.5°C 28.3°F-2.1°C 96% 7.0 mph ESE11.3 kmh ESE 13.0 mph20.9 kmh 29.83 in1010.2 mb 0.00 in0.0 mm 0.00 in0.0 mm 0.00 in0.0 mm
09:00 AM 29.3°F-1.5°C 28.3°F-2.1°C 96% 6.0 mph ESE9.7 kmh ESE 19.0 mph30.6 kmh 29.82 in1009.8 mb 0.00 in0.0 mm 0.00 in0.0 mm 0.00 in0.0 mm
09:05 AM 29.3°F-1.5°C 28.3°F-2.1°C 96% 8.0 mph E12.9 kmh E 14.0 mph22.5 kmh 29.82 in1009.8 mb 0.00 in0.0 mm 0.00 in0.0 mm 0.00 in0.0 mm
09:10 AM 29.3°F-1.5°C 28.3°F-2.1°C 96% 6.0 mph ESE9.7 kmh ESE 12.0 mph19.3 kmh 29.82 in1009.8 mb 0.00 in0.0 mm 0.00 in0.0 mm 0.00 in0.0 mm
09:15 AM 29.3°F-1.5°C 28.3°F-2.1°C 96% 6.0 mph ESE9.7 kmh ESE 11.0 mph17.7 kmh 29.79 in1008.8 mb 0.00 in0.0 mm 0.00 in0.0 mm 0.00 in0.0 mm
09:20 AM 29.3°F-1.5°C 28.3°F-2.1°C 96% 7.0 mph E11.3 kmh E 18.0 mph29.0 kmh 29.79 in1008.8 mb 0.00 in0.0 mm 0.00 in0.0 mm 0.00 in0.0 mm
09:25 AM 29.3°F-1.5°C 28.3°F-2.1°C 96% 6.0 mph E9.7 kmh E 15.0 mph24.1 kmh 29.79 in1008.8 mb 0.00 in0.0 mm 0.00 in0.0 mm 0.00 in0.0 mm
09:30 AM 29.3°F-1.5°C 28.3°F-2.1°C 96% 7.0 mph ESE11.3 kmh ESE 13.0 mph20.9 kmh 29.77 in1008.1 mb 0.00 in0.0 mm 0.00 in0.0 mm 0.00 in0.0 mm
09:35 AM 29.3°F-1.5°C 28.3°F-2.1°C 96% 6.0 mph E9.7 kmh E 13.0 mph20.9 kmh 29.77 in1008.1 mb 0.00 in0.0 mm 0.00 in0.0 mm 0.00 in0.0 mm
09:40 AM 29.3°F-1.5°C 28.3°F-2.1°C 96% 7.0 mph E11.3 kmh E 15.0 mph24.1 kmh 29.77 in1008.1 mb 0.00 in0.0 mm 0.00 in0.0 mm 0.00 in0.0 mm
09:45 AM 29.3°F-1.5°C 28.3°F-2.1°C 96% 7.0 mph ESE11.3 kmh ESE 20.0 mph32.2 kmh 29.71 in1006.1 mb 0.00 in0.0 mm 0.00 in0.0 mm 0.00 in0.0 mm
09:50 AM 29.3°F-1.5°C 28.3°F-2.1°C 96% 8.0 mph E12.9 kmh E 17.0 mph27.4 kmh 29.71 in1006.1 mb 0.00 in0.0 mm 0.00 in0.0 mm 0.00 in0.0 mm
09:55 AM 29.3°F-1.5°C 28.3°F-2.1°C 96% 7.0 mph E11.3 kmh E 14.0 mph22.5 kmh 29.71 in1006.1 mb 0.00 in0.0 mm 0.00 in0.0 mm 0.00 in0.0 mm
10:00 AM 29.3°F-1.5°C 28.3°F-2.1°C 96% 5.0 mph E8.0 kmh E 16.0 mph25.7 kmh 29.71 in1006.1 mb 0.00 in0.0 mm 0.00 in0.0 mm 0.00 in0.0 mm
10:05 AM 29.3°F-1.5°C 28.3°F-2.1°C 96% 4.0 mph NE6.4 kmh NE 12.0 mph19.3 kmh 29.71 in1006.1 mb 0.00 in0.0 mm 0.00 in0.0 mm 0.00 in0.0 mm
10:10 AM 29.3°F-1.5°C 28.3°F-2.1°C 96% 3.0 mph ENE4.8 kmh ENE 9.0 mph14.5 kmh 29.71 in1006.1 mb 0.00 in0.0 mm 0.00 in0.0 mm 0.00 in0.0 mm
10:15 AM 29.4°F-1.4°C 28.7°F-1.8°C 97% 5.0 mph E8.0 kmh E 11.0 mph17.7 kmh 29.71 in1006.1 mb 0.00 in0.0 mm 0.00 in0.0 mm 0.00 in0.0 mm
10:20 AM 29.4°F-1.4°C 28.7°F-1.8°C 97% 3.0 mph ENE4.8 kmh ENE 8.0 mph12.9 kmh 29.71 in1006.1 mb 0.00 in0.0 mm 0.00 in0.0 mm 0.00 in0.0 mm
10:25 AM 29.5°F-1.4°C 28.8°F-1.8°C 97% 2.0 mph NNE3.2 kmh NNE 8.0 mph12.9 kmh 29.71 in1006.1 mb 0.00 in0.0 mm 0.00 in0.0 mm 0.00 in0.0 mm
10:30 AM 29.7°F-1.3°C 29.0°F-1.7°C 97% 4.0 mph NNE6.4 kmh NNE 9.0 mph14.5 kmh 29.71 in1006.1 mb 0.00 in0.0 mm 0.00 in0.0 mm 0.00 in0.0 mm
10:35 AM 29.8°F-1.2°C 29.1°F-1.6°C 97% 7.0 mph E11.3 kmh E 20.0 mph32.2 kmh 29.71 in1006.1 mb 0.00 in0.0 mm 0.00 in0.0 mm 0.00 in0.0 mm
10:40 AM 30.0°F-1.1°C 29.3°F-1.5°C 97% 4.0 mph E6.4 kmh E 10.0 mph16.1 kmh 29.71 in1006.1 mb 0.00 in0.0 mm 0.00 in0.0 mm 0.00 in0.0 mm
10:45 AM 30.3°F-0.9°C 29.6°F-1.3°C 97% 4.0 mph NNE6.4 kmh NNE 9.0 mph14.5 kmh 29.68 in1005.1 mb 0.00 in0.0 mm 0.00 in0.0 mm 0.00 in0.0 mm
10:50 AM 30.3°F-0.9°C 29.6°F-1.3°C 97% 5.0 mph E8.0 kmh E 11.0 mph17.7 kmh 29.68 in1005.1 mb 0.00 in0.0 mm 0.00 in0.0 mm 0.00 in0.0 mm
10:55 AM 30.4°F-0.9°C 29.7°F-1.3°C 97% 3.0 mph ENE4.8 kmh ENE 10.0 mph16.1 kmh 29.68 in1005.1 mb 0.00 in0.0 mm 0.00 in0.0 mm 0.00 in0.0 mm
11:00 AM 30.6°F-0.8°C 29.9°F-1.2°C 97% 3.0 mph E4.8 kmh E 8.0 mph12.9 kmh 29.66 in1004.4 mb 0.00 in0.0 mm 0.00 in0.0 mm 0.00 in0.0 mm
11:05 AM 30.7°F-0.7°C 30.0°F-1.1°C 97% 3.0 mph NE4.8 kmh NE 6.0 mph9.7 kmh 29.66 in1004.4 mb 0.00 in0.0 mm 0.00 in0.0 mm 0.00 in0.0 mm
11:10 AM 30.9°F-0.6°C 30.2°F-1.0°C 97% 3.0 mph E4.8 kmh E 11.0 mph17.7 kmh 29.66 in1004.4 mb 0.00 in0.0 mm 0.00 in0.0 mm 0.00 in0.0 mm
11:15 AM 31.2°F-0.4°C 30.4°F-0.9°C 97% 3.0 mph NE4.8 kmh NE 7.0 mph11.3 kmh 29.64 in1003.7 mb 0.00 in0.0 mm 0.00 in0.0 mm 0.00 in0.0 mm
11:20 AM 31.3°F-0.4°C 30.5°F-0.8°C 97% 2.0 mph NNE3.2 kmh NNE 5.0 mph8.0 kmh 29.64 in1003.7 mb 0.00 in0.0 mm 0.00 in0.0 mm 0.00 in0.0 mm
11:25 AM 31.5°F-0.3°C 30.7°F-0.7°C 97% 4.0 mph NNE6.4 kmh NNE 7.0 mph11.3 kmh 29.64 in1003.7 mb 0.00 in0.0 mm 0.00 in0.0 mm 0.00 in0.0 mm
11:30 AM 31.6°F-0.2°C 30.8°F-0.7°C 97% 3.0 mph NNE4.8 kmh NNE 6.0 mph9.7 kmh 29.64 in1003.7 mb 0.00 in0.0 mm 0.00 in0.0 mm 0.00 in0.0 mm
11:35 AM 31.6°F-0.2°C 30.8°F-0.7°C 97% 3.0 mph NNE4.8 kmh NNE 10.0 mph16.1 kmh 29.64 in1003.7 mb 0.00 in0.0 mm 0.00 in0.0 mm 0.00 in0.0 mm
11:40 AM 31.6°F-0.2°C 30.8°F-0.7°C 97% 5.0 mph E8.0 kmh E 9.0 mph14.5 kmh 29.64 in1003.7 mb 0.00 in0.0 mm 0.00 in0.0 mm 0.00 in0.0 mm
11:45 AM 31.8°F-0.1°C 31.0°F-0.6°C 97% 4.0 mph ENE6.4 kmh ENE 6.0 mph9.7 kmh 29.63 in1003.4 mb 0.00 in0.0 mm 0.00 in0.0 mm 0.00 in0.0 mm
11:50 AM 31.9°F-0.1°C 31.1°F-0.5°C 97% 4.0 mph NE6.4 kmh NE 11.0 mph17.7 kmh 29.63 in1003.4 mb 0.00 in0.0 mm 0.00 in0.0 mm 0.00 in0.0 mm
11:55 AM 30.7°F-0.7°C 29.7°F-1.3°C 96% 4.0 mph 6.4 kmh 6.0 mph9.7 kmh 29.63 in1003.4 mb 0.00 in0.0 mm 0.00 in0.0 mm 0.00 in0.0 mm
12:00 PM 28.4°F-2.0°C 26.9°F-2.8°C 94% 5.0 mph 8.0 kmh 9.0 mph14.5 kmh 29.62 in1003.0 mb 0.00 in0.0 mm 0.00 in0.0 mm 0.00 in0.0 mm
12:05 PM 26.6°F-3.0°C 25.1°F-3.8°C 94% 5.0 mph 8.0 kmh 11.0 mph17.7 kmh 29.62 in1003.0 mb 0.00 in0.0 mm 0.00 in0.0 mm 0.00 in0.0 mm
12:10 PM 25.0°F-3.9°C 23.3°F-4.8°C 93% 5.0 mph 8.0 kmh 9.0 mph14.5 kmh 29.62 in1003.0 mb 0.00 in0.0 mm 0.00 in0.0 mm 0.00 in0.0 mm
12:15 PM 23.6°F-4.7°C 21.6°F-5.8°C 92% 4.0 mph 6.4 kmh 8.0 mph12.9 kmh 29.61 in1002.7 mb 0.00 in0.0 mm 0.00 in0.0 mm 0.00 in0.0 mm
12:20 PM 22.7°F-5.2°C 20.7°F-6.3°C 92% 3.0 mph 4.8 kmh 12.0 mph19.3 kmh 29.61 in1002.7 mb 0.00 in0.0 mm 0.00 in0.0 mm 0.00 in0.0 mm
12:25 PM 21.9°F-5.6°C 19.9°F-6.7°C 92% 4.0 mph 6.4 kmh 8.0 mph12.9 kmh 29.61 in1002.7 mb 0.00 in0.0 mm 0.00 in0.0 mm 0.00 in0.0 mm
12:30 PM 21.3°F-5.9°C 19.3°F-7.1°C 92% 4.0 mph 6.4 kmh 7.0 mph11.3 kmh 29.60 in1002.4 mb 0.00 in0.0 mm 0.00 in0.0 mm 0.00 in0.0 mm
12:35 PM 21.1°F-6.1°C 19.1°F-7.2°C 92% 4.0 mph 6.4 kmh 7.0 mph11.3 kmh 29.60 in1002.4 mb 0.00 in0.0 mm 0.00 in0.0 mm 0.00 in0.0 mm
12:40 PM 20.6°F-6.3°C 18.4°F-7.6°C 91% 5.0 mph 8.0 kmh 11.0 mph17.7 kmh 29.60 in1002.4 mb 0.00 in0.0 mm 0.00 in0.0 mm 0.00 in0.0 mm
12:45 PM 20.3°F-6.5°C 18.1°F-7.7°C 91% 4.0 mph 6.4 kmh 12.0 mph19.3 kmh 29.59 in1002.0 mb 0.00 in0.0 mm 0.00 in0.0 mm 0.00 in0.0 mm
12:50 PM 20.0°F-6.7°C 17.8°F-7.9°C 91% 5.0 mph 8.0 kmh 9.0 mph14.5 kmh 29.59 in1002.0 mb 0.00 in0.0 mm 0.00 in0.0 mm 0.00 in0.0 mm
12:55 PM 19.5°F-6.9°C 17.3°F-8.2°C 91% 4.0 mph 6.4 kmh 8.0 mph12.9 kmh 29.59 in1002.0 mb 0.00 in0.0 mm 0.00 in0.0 mm 0.00 in0.0 mm
01:00 PM 19.2°F-7.1°C 16.8°F-8.4°C 90% 5.0 mph 8.0 kmh 9.0 mph14.5 kmh 29.57 in1001.4 mb 0.00 in0.0 mm 0.00 in0.0 mm 0.00 in0.0 mm
01:05 PM 18.9°F-7.3°C 16.5°F-8.6°C 90% 4.0 mph 6.4 kmh 9.0 mph14.5 kmh 29.57 in1001.4 mb 0.00 in0.0 mm 0.00 in0.0 mm 0.00 in0.0 mm
01:10 PM 18.6°F-7.4°C 16.2°F-8.8°C 90% 4.0 mph 6.4 kmh 11.0 mph17.7 kmh 29.57 in1001.4 mb 0.00 in0.0 mm 0.00 in0.0 mm 0.00 in0.0 mm
01:15 PM 18.3°F-7.6°C 15.9°F-8.9°C 90% 5.0 mph 8.0 kmh 9.0 mph14.5 kmh 29.52 in999.7 mb 0.00 in0.0 mm 0.00 in0.0 mm 0.00 in0.0 mm
01:20 PM 18.0°F-7.8°C 15.6°F-9.1°C 90% 5.0 mph 8.0 kmh 10.0 mph16.1 kmh 29.52 in999.7 mb 0.00 in0.0 mm 0.00 in0.0 mm 0.00 in0.0 mm
01:25 PM 17.8°F-7.9°C 15.4°F-9.2°C 90% 4.0 mph 6.4 kmh 7.0 mph11.3 kmh 29.52 in999.7 mb 0.00 in0.0 mm 0.00 in0.0 mm 0.00 in0.0 mm
01:30 PM 17.5°F-8.1°C 14.8°F-9.6°C 89% 4.0 mph 6.4 kmh 13.0 mph20.9 kmh 29.49 in998.6 mb 0.00 in0.0 mm 0.00 in0.0 mm 0.00 in0.0 mm
01:35 PM 17.3°F-8.2°C 14.6°F-9.7°C 89% 5.0 mph 8.0 kmh 14.0 mph22.5 kmh 29.49 in998.6 mb 0.00 in0.0 mm 0.00 in0.0 mm 0.00 in0.0 mm
01:40 PM 17.2°F-8.2°C 14.5°F-9.7°C 89% 3.0 mph 4.8 kmh 10.0 mph16.1 kmh 29.49 in998.6 mb 0.00 in0.0 mm 0.00 in0.0 mm 0.00 in0.0 mm
01:45 PM 17.0°F-8.3°C 14.3°F-9.8°C 89% 4.0 mph 6.4 kmh 8.0 mph12.9 kmh 29.48 in998.3 mb 0.00 in0.0 mm 0.00 in0.0 mm 0.00 in0.0 mm
01:50 PM 17.0°F-8.3°C 14.6°F-9.7°C 90% 2.0 mph 3.2 kmh 4.0 mph6.4 kmh 29.48 in998.3 mb 0.00 in0.0 mm 0.00 in0.0 mm 0.00 in0.0 mm
01:55 PM 17.0°F-8.3°C 14.3°F-9.8°C 89% 3.0 mph 4.8 kmh 6.0 mph9.7 kmh 29.48 in998.3 mb 0.00 in0.0 mm 0.00 in0.0 mm 0.00 in0.0 mm
02:00 PM 17.0°F-8.3°C 14.3°F-9.8°C 89% 3.0 mph 4.8 kmh 8.0 mph12.9 kmh 29.48 in998.3 mb 0.00 in0.0 mm 0.00 in0.0 mm 0.00 in0.0 mm
02:05 PM 16.9°F-8.4°C 14.2°F-9.9°C 89% 3.0 mph 4.8 kmh 6.0 mph9.7 kmh 29.48 in998.3 mb 0.00 in0.0 mm 0.00 in0.0 mm 0.00 in0.0 mm
02:10 PM 16.7°F-8.5°C 14.0°F-10.0°C 89% 3.0 mph 4.8 kmh 5.0 mph8.0 kmh 29.48 in998.3 mb 0.00 in0.0 mm 0.00 in0.0 mm 0.00 in0.0 mm
02:15 PM 16.7°F-8.5°C 14.0°F-10.0°C 89% 3.0 mph 4.8 kmh 7.0 mph11.3 kmh 29.49 in998.6 mb 0.00 in0.0 mm 0.00 in0.0 mm 0.00 in0.0 mm
02:20 PM 16.7°F-8.5°C 14.0°F-10.0°C 89% 3.0 mph 4.8 kmh 6.0 mph9.7 kmh 29.49 in998.6 mb 0.00 in0.0 mm 0.00 in0.0 mm 0.00 in0.0 mm
02:25 PM 16.7°F-8.5°C 14.0°F-10.0°C 89% 3.0 mph 4.8 kmh 5.0 mph8.0 kmh 29.49 in998.6 mb 0.00 in0.0 mm 0.00 in0.0 mm 0.00 in0.0 mm
02:30 PM 16.7°F-8.5°C 14.0°F-10.0°C 89% 2.0 mph 3.2 kmh 4.0 mph6.4 kmh 29.48 in998.3 mb 0.00 in0.0 mm 0.00 in0.0 mm 0.00 in0.0 mm
02:35 PM 16.9°F-8.4°C 14.2°F-9.9°C 89% 2.0 mph 3.2 kmh 4.0 mph6.4 kmh 29.48 in998.3 mb 0.00 in0.0 mm 0.00 in0.0 mm 0.00 in0.0 mm
02:40 PM 16.9°F-8.4°C 14.2°F-9.9°C 89% 2.0 mph 3.2 kmh 4.0 mph6.4 kmh 29.48 in998.3 mb 0.00 in0.0 mm 0.00 in0.0 mm 0.00 in0.0 mm
02:45 PM 16.9°F-8.4°C 14.2°F-9.9°C 89% 3.0 mph 4.8 kmh 7.0 mph11.3 kmh 29.48 in998.3 mb 0.00 in0.0 mm 0.00 in0.0 mm 0.00 in0.0 mm
02:50 PM 16.9°F-8.4°C 14.2°F-9.9°C 89% 2.0 mph 3.2 kmh 4.0 mph6.4 kmh 29.48 in998.3 mb 0.00 in0.0 mm 0.00 in0.0 mm 0.00 in0.0 mm
02:55 PM 16.9°F-8.4°C 14.2°F-9.9°C 89% 3.0 mph 4.8 kmh 7.0 mph11.3 kmh 29.48 in998.3 mb 0.00 in0.0 mm 0.00 in0.0 mm 0.00 in0.0 mm
03:00 PM 16.7°F-8.5°C 14.0°F-10.0°C 89% 3.0 mph 4.8 kmh 7.0 mph11.3 kmh 29.47 in998.0 mb 0.00 in0.0 mm 0.00 in0.0 mm 0.00 in0.0 mm
03:05 PM 16.5°F-8.6°C 13.8°F-10.1°C 89% 3.0 mph 4.8 kmh 7.0 mph11.3 kmh 29.47 in998.0 mb 0.00 in0.0 mm 0.00 in0.0 mm 0.00 in0.0 mm
03:10 PM 16.4°F-8.7°C 13.7°F-10.2°C 89% 3.0 mph 4.8 kmh 8.0 mph12.9 kmh 29.47 in998.0 mb 0.00 in0.0 mm 0.00 in0.0 mm 0.00 in0.0 mm
03:15 PM 16.2°F-8.8°C 13.5°F-10.3°C 89% 3.0 mph 4.8 kmh 8.0 mph12.9 kmh 29.46 in997.6 mb 0.00 in0.0 mm 0.00 in0.0 mm 0.00 in0.0 mm
03:20 PM 16.2°F-8.8°C 13.5°F-10.3°C 89% 2.0 mph 3.2 kmh 5.0 mph8.0 kmh 29.46 in997.6 mb 0.00 in0.0 mm 0.00 in0.0 mm 0.00 in0.0 mm
03:25 PM 16.2°F-8.8°C 13.5°F-10.3°C 89% 2.0 mph 3.2 kmh 4.0 mph6.4 kmh 29.46 in997.6 mb 0.00 in0.0 mm 0.00 in0.0 mm 0.00 in0.0 mm
03:30 PM 16.1°F-8.8°C 13.2°F-10.4°C 88% 2.0 mph 3.2 kmh 5.0 mph8.0 kmh 29.43 in996.6 mb 0.00 in0.0 mm 0.00 in0.0 mm 0.00 in0.0 mm
03:35 PM 16.1°F-8.8°C 13.4°F-10.3°C 89% 1.0 mph 1.6 kmh 5.0 mph8.0 kmh 29.43 in996.6 mb 0.00 in0.0 mm 0.00 in0.0 mm 0.00 in0.0 mm
03:40 PM 16.2°F-8.8°C 13.5°F-10.3°C 89% 2.0 mph 3.2 kmh 5.0 mph8.0 kmh 29.43 in996.6 mb 0.00 in0.0 mm 0.00 in0.0 mm 0.00 in0.0 mm
03:45 PM 16.2°F-8.8°C 13.5°F-10.3°C 89% 2.0 mph 3.2 kmh 4.0 mph6.4 kmh 29.42 in996.3 mb 0.00 in0.0 mm 0.00 in0.0 mm 0.00 in0.0 mm
03:50 PM 16.2°F-8.8°C 13.5°F-10.3°C 89% 2.0 mph 3.2 kmh 5.0 mph8.0 kmh 29.42 in996.3 mb 0.00 in0.0 mm 0.00 in0.0 mm 0.00 in0.0 mm
03:55 PM 16.4°F-8.7°C 13.7°F-10.2°C 89% 2.0 mph 3.2 kmh 4.0 mph6.4 kmh 29.42 in996.3 mb 0.00 in0.0 mm 0.00 in0.0 mm 0.00 in0.0 mm
04:00 PM 16.4°F-8.7°C 13.7°F-10.2°C 89% 2.0 mph 3.2 kmh 4.0 mph6.4 kmh 29.39 in995.3 mb 0.00 in0.0 mm 0.00 in0.0 mm 0.00 in0.0 mm
04:05 PM 16.5°F-8.6°C 13.8°F-10.1°C 89% 2.0 mph 3.2 kmh 4.0 mph6.4 kmh 29.39 in995.3 mb 0.00 in0.0 mm 0.00 in0.0 mm 0.00 in0.0 mm
04:10 PM 16.4°F-8.7°C 13.7°F-10.2°C 89% 3.0 mph 4.8 kmh 5.0 mph8.0 kmh 29.39 in995.3 mb 0.00 in0.0 mm 0.00 in0.0 mm 0.00 in0.0 mm
04:15 PM 16.5°F-8.6°C 13.8°F-10.1°C 89% 2.0 mph 3.2 kmh 4.0 mph6.4 kmh 29.39 in995.3 mb 0.00 in0.0 mm 0.00 in0.0 mm 0.00 in0.0 mm
04:20 PM 16.5°F-8.6°C 13.8°F-10.1°C 89% 3.0 mph 4.8 kmh 7.0 mph11.3 kmh 29.39 in995.3 mb 0.00 in0.0 mm 0.00 in0.0 mm 0.00 in0.0 mm
04:25 PM 16.5°F-8.6°C 13.8°F-10.1°C 89% 1.0 mph 1.6 kmh 4.0 mph6.4 kmh 29.39 in995.3 mb 0.00 in0.0 mm 0.00 in0.0 mm 0.00 in0.0 mm
04:30 PM 16.5°F-8.6°C 13.8°F-10.1°C 89% 1.0 mph 1.6 kmh 4.0 mph6.4 kmh 29.37 in994.6 mb 0.00 in0.0 mm 0.00 in0.0 mm 0.00 in0.0 mm
04:35 PM 16.7°F-8.5°C 14.0°F-10.0°C 89% 1.0 mph 1.6 kmh 4.0 mph6.4 kmh 29.37 in994.6 mb 0.00 in0.0 mm 0.00 in0.0 mm 0.00 in0.0 mm
04:40 PM 16.7°F-8.5°C 14.0°F-10.0°C 89% 1.0 mph 1.6 kmh 3.0 mph4.8 kmh 29.37 in994.6 mb 0.00 in0.0 mm 0.00 in0.0 mm 0.00 in0.0 mm
04:45 PM 16.7°F-8.5°C 14.0°F-10.0°C 89% 2.0 mph 3.2 kmh 5.0 mph8.0 kmh 29.36 in994.2 mb 0.00 in0.0 mm 0.00 in0.0 mm 0.00 in0.0 mm
04:50 PM 16.9°F-8.4°C 14.2°F-9.9°C 89% 2.0 mph 3.2 kmh 5.0 mph8.0 kmh 29.36 in994.2 mb 0.00 in0.0 mm 0.00 in0.0 mm 0.00 in0.0 mm
04:55 PM 17.0°F-8.3°C 14.6°F-9.7°C 90% 3.0 mph 4.8 kmh 5.0 mph8.0 kmh 29.36 in994.2 mb 0.00 in0.0 mm 0.00 in0.0 mm 0.00 in0.0 mm
05:00 PM 17.3°F-8.2°C 14.9°F-9.5°C 90% 3.0 mph 4.8 kmh 6.0 mph9.7 kmh 29.32 in992.9 mb 0.00 in0.0 mm 0.00 in0.0 mm 0.00 in0.0 mm
05:05 PM 17.8°F-7.9°C 15.4°F-9.2°C 90% 1.0 mph 1.6 kmh 5.0 mph8.0 kmh 29.32 in992.9 mb 0.00 in0.0 mm 0.00 in0.0 mm 0.00 in0.0 mm
05:10 PM 18.0°F-7.8°C 15.6°F-9.1°C 90% 2.0 mph 3.2 kmh 5.0 mph8.0 kmh 29.32 in992.9 mb 0.00 in0.0 mm 0.00 in0.0 mm 0.00 in0.0 mm
05:15 PM 18.1°F-7.7°C 15.7°F-9.1°C 90% 1.0 mph 1.6 kmh 3.0 mph4.8 kmh 29.31 in992.6 mb 0.00 in0.0 mm 0.00 in0.0 mm 0.00 in0.0 mm
05:20 PM 18.3°F-7.6°C 15.9°F-8.9°C 90% 1.0 mph 1.6 kmh 2.0 mph3.2 kmh 29.31 in992.6 mb 0.00 in0.0 mm 0.00 in0.0 mm 0.00 in0.0 mm
05:25 PM 18.4°F-7.6°C 16.0°F-8.9°C 90% 2.0 mph 3.2 kmh 3.0 mph4.8 kmh 29.31 in992.6 mb 0.00 in0.0 mm 0.00 in0.0 mm 0.00 in0.0 mm
05:30 PM 18.6°F-7.4°C 16.4°F-8.7°C 91% 1.0 mph 1.6 kmh 3.0 mph4.8 kmh 29.28 in991.5 mb 0.00 in0.0 mm 0.00 in0.0 mm 0.00 in0.0 mm
05:35 PM 18.8°F-7.3°C 16.4°F-8.7°C 90% 2.0 mph 3.2 kmh 6.0 mph9.7 kmh 29.28 in991.5 mb 0.00 in0.0 mm 0.00 in0.0 mm 0.00 in0.0 mm
05:40 PM 18.9°F-7.3°C 16.5°F-8.6°C 90% 4.0 mph 6.4 kmh 7.0 mph11.3 kmh 29.28 in991.5 mb 0.00 in0.0 mm 0.00 in0.0 mm 0.00 in0.0 mm
05:45 PM 18.9°F-7.3°C 16.5°F-8.6°C 90% 4.0 mph 6.4 kmh 8.0 mph12.9 kmh 29.24 in990.2 mb 0.00 in0.0 mm 0.00 in0.0 mm 0.00 in0.0 mm
05:50 PM 18.9°F-7.3°C 16.7°F-8.5°C 91% 3.0 mph 4.8 kmh 8.0 mph12.9 kmh 29.24 in990.2 mb 0.00 in0.0 mm 0.00 in0.0 mm 0.00 in0.0 mm
05:55 PM 19.1°F-7.2°C 16.9°F-8.4°C 91% 3.0 mph 4.8 kmh 7.0 mph11.3 kmh 29.24 in990.2 mb 0.00 in0.0 mm 0.00 in0.0 mm 0.00 in0.0 mm
06:00 PM 19.2°F-7.1°C 17.0°F-8.3°C 91% 1.0 mph 1.6 kmh 4.0 mph6.4 kmh 29.21 in989.2 mb 0.00 in0.0 mm 0.00 in0.0 mm 0.00 in0.0 mm
06:05 PM 19.5°F-6.9°C 17.3°F-8.2°C 91% 2.0 mph 3.2 kmh 5.0 mph8.0 kmh 29.21 in989.2 mb 0.00 in0.0 mm 0.00 in0.0 mm 0.00 in0.0 mm
06:10 PM 19.9°F-6.7°C 17.7°F-7.9°C 91% 1.0 mph 1.6 kmh 3.0 mph4.8 kmh 29.21 in989.2 mb 0.00 in0.0 mm 0.00 in0.0 mm 0.00 in0.0 mm
06:15 PM 20.0°F-6.7°C 17.8°F-7.9°C 91% 1.0 mph 1.6 kmh 3.0 mph4.8 kmh 29.24 in990.2 mb 0.00 in0.0 mm 0.00 in0.0 mm 0.00 in0.0 mm
06:20 PM 20.0°F-6.7°C 17.8°F-7.9°C 91% 2.0 mph 3.2 kmh 3.0 mph4.8 kmh 29.24 in990.2 mb 0.00 in0.0 mm 0.00 in0.0 mm 0.00 in0.0 mm
06:25 PM 20.0°F-6.7°C 17.8°F-7.9°C 91% 3.0 mph 4.8 kmh 5.0 mph8.0 kmh 29.24 in990.2 mb 0.00 in0.0 mm 0.00 in0.0 mm 0.00 in0.0 mm
06:30 PM 19.9°F-6.7°C 17.7°F-7.9°C 91% 3.0 mph 4.8 kmh 5.0 mph8.0 kmh 29.23 in989.8 mb 0.00 in0.0 mm 0.00 in0.0 mm 0.00 in0.0 mm
06:35 PM 19.7°F-6.8°C 17.3°F-8.2°C 90% 2.0 mph 3.2 kmh 4.0 mph6.4 kmh 29.23 in989.8 mb 0.00 in0.0 mm 0.00 in0.0 mm 0.00 in0.0 mm
06:40 PM 19.4°F-7.0°C 17.0°F-8.3°C 90% 2.0 mph 3.2 kmh 4.0 mph6.4 kmh 29.23 in989.8 mb 0.00 in0.0 mm 0.00 in0.0 mm 0.00 in0.0 mm
06:45 PM 19.1°F-7.2°C 16.7°F-8.5°C 90% 2.0 mph 3.2 kmh 4.0 mph6.4 kmh 29.22 in989.5 mb 0.00 in0.0 mm 0.00 in0.0 mm 0.00 in0.0 mm
06:50 PM 18.9°F-7.3°C 16.5°F-8.6°C 90% 2.0 mph 3.2 kmh 5.0 mph8.0 kmh 29.22 in989.5 mb 0.00 in0.0 mm 0.00 in0.0 mm 0.00 in0.0 mm
06:55 PM 18.9°F-7.3°C 16.5°F-8.6°C 90% 2.0 mph 3.2 kmh 4.0 mph6.4 kmh 29.22 in989.5 mb 0.00 in0.0 mm 0.00 in0.0 mm 0.00 in0.0 mm
07:00 PM 18.8°F-7.3°C 16.4°F-8.7°C 90% 4.0 mph 6.4 kmh 9.0 mph14.5 kmh 29.23 in989.8 mb 0.00 in0.0 mm 0.00 in0.0 mm 0.00 in0.0 mm
07:05 PM 18.6°F-7.4°C 16.2°F-8.8°C 90% 4.0 mph 6.4 kmh 8.0 mph12.9 kmh 29.23 in989.8 mb 0.00 in0.0 mm 0.00 in0.0 mm 0.00 in0.0 mm
07:10 PM 18.4°F-7.6°C 16.0°F-8.9°C 90% 4.0 mph 6.4 kmh 8.0 mph12.9 kmh 29.23 in989.8 mb 0.00 in0.0 mm 0.00 in0.0 mm 0.00 in0.0 mm
07:15 PM 18.3°F-7.6°C 15.9°F-8.9°C 90% 3.0 mph 4.8 kmh 8.0 mph12.9 kmh 29.25 in990.5 mb 0.00 in0.0 mm 0.00 in0.0 mm 0.00 in0.0 mm
07:20 PM 18.3°F-7.6°C 15.9°F-8.9°C 90% 3.0 mph 4.8 kmh 6.0 mph9.7 kmh 29.25 in990.5 mb 0.00 in0.0 mm 0.00 in0.0 mm 0.00 in0.0 mm
07:25 PM 18.1°F-7.7°C 15.7°F-9.1°C 90% 4.0 mph 6.4 kmh 9.0 mph14.5 kmh 29.25 in990.5 mb 0.00 in0.0 mm 0.00 in0.0 mm 0.00 in0.0 mm
07:30 PM 17.8°F-7.9°C 15.1°F-9.4°C 89% 5.0 mph 8.0 kmh 10.0 mph16.1 kmh 29.26 in990.9 mb 0.00 in0.0 mm 0.00 in0.0 mm 0.00 in0.0 mm
07:35 PM 17.8°F-7.9°C 15.1°F-9.4°C 89% 4.0 mph 6.4 kmh 9.0 mph14.5 kmh 29.26 in990.9 mb 0.00 in0.0 mm 0.00 in0.0 mm 0.00 in0.0 mm
07:40 PM 17.7°F-7.9°C 15.0°F-9.4°C 89% 3.0 mph 4.8 kmh 6.0 mph9.7 kmh 29.26 in990.9 mb 0.00 in0.0 mm 0.00 in0.0 mm 0.00 in0.0 mm
07:45 PM 17.7°F-7.9°C 15.0°F-9.4°C 89% 4.0 mph 6.4 kmh 8.0 mph12.9 kmh 29.27 in991.2 mb 0.00 in0.0 mm 0.00 in0.0 mm 0.00 in0.0 mm
07:50 PM 17.5°F-8.1°C 14.8°F-9.6°C 89% 4.0 mph 6.4 kmh 13.0 mph20.9 kmh 29.27 in991.2 mb 0.00 in0.0 mm 0.00 in0.0 mm 0.00 in0.0 mm
07:55 PM 17.5°F-8.1°C 14.8°F-9.6°C 89% 4.0 mph 6.4 kmh 7.0 mph11.3 kmh 29.27 in991.2 mb 0.00 in0.0 mm 0.00 in0.0 mm 0.00 in0.0 mm
08:00 PM 17.5°F-8.1°C 14.8°F-9.6°C 89% 3.0 mph 4.8 kmh 8.0 mph12.9 kmh 29.27 in991.2 mb 0.00 in0.0 mm 0.00 in0.0 mm 0.00 in0.0 mm
08:05 PM 17.5°F-8.1°C 14.8°F-9.6°C 89% 4.0 mph 6.4 kmh 9.0 mph14.5 kmh 29.27 in991.2 mb 0.00 in0.0 mm 0.00 in0.0 mm 0.00 in0.0 mm
08:10 PM 17.5°F-8.1°C 14.8°F-9.6°C 89% 4.0 mph 6.4 kmh 9.0 mph14.5 kmh 29.27 in991.2 mb 0.00 in0.0 mm 0.00 in0.0 mm 0.00 in0.0 mm
08:15 PM 17.7°F-7.9°C 15.0°F-9.4°C 89% 4.0 mph 6.4 kmh 9.0 mph14.5 kmh 29.27 in991.2 mb 0.00 in0.0 mm 0.00 in0.0 mm 0.00 in0.0 mm
08:20 PM 17.8°F-7.9°C 15.1°F-9.4°C 89% 4.0 mph 6.4 kmh 8.0 mph12.9 kmh 29.27 in991.2 mb 0.00 in0.0 mm 0.00 in0.0 mm 0.00 in0.0 mm
08:25 PM 18.0°F-7.8°C 15.3°F-9.3°C 89% 3.0 mph 4.8 kmh 6.0 mph9.7 kmh 29.27 in991.2 mb 0.00 in0.0 mm 0.00 in0.0 mm 0.00 in0.0 mm
08:30 PM 18.1°F-7.7°C 15.7°F-9.1°C 90% 3.0 mph 4.8 kmh 6.0 mph9.7 kmh 29.27 in991.2 mb 0.00 in0.0 mm 0.00 in0.0 mm 0.00 in0.0 mm
08:35 PM 18.3°F-7.6°C 15.9°F-8.9°C 90% 3.0 mph 4.8 kmh 9.0 mph14.5 kmh 29.27 in991.2 mb 0.00 in0.0 mm 0.00 in0.0 mm 0.00 in0.0 mm
08:40 PM 18.4°F-7.6°C 16.0°F-8.9°C 90% 5.0 mph 8.0 kmh 10.0 mph16.1 kmh 29.27 in991.2 mb 0.00 in0.0 mm 0.00 in0.0 mm 0.00 in0.0 mm
08:45 PM 18.6°F-7.4°C 16.2°F-8.8°C 90% 2.0 mph 3.2 kmh 8.0 mph12.9 kmh 29.26 in990.9 mb 0.00 in0.0 mm 0.00 in0.0 mm 0.00 in0.0 mm
08:50 PM 18.8°F-7.3°C 16.4°F-8.7°C 90% 3.0 mph 4.8 kmh 8.0 mph12.9 kmh 29.26 in990.9 mb 0.00 in0.0 mm 0.00 in0.0 mm 0.00 in0.0 mm
08:55 PM 18.9°F-7.3°C 16.5°F-8.6°C 90% 3.0 mph 4.8 kmh 5.0 mph8.0 kmh 29.26 in990.9 mb 0.00 in0.0 mm 0.00 in0.0 mm 0.00 in0.0 mm
09:00 PM 19.1°F-7.2°C 16.7°F-8.5°C 90% 3.0 mph 4.8 kmh 7.0 mph11.3 kmh 29.26 in990.9 mb 0.00 in0.0 mm 0.00 in0.0 mm 0.00 in0.0 mm
09:05 PM 19.1°F-7.2°C 16.7°F-8.5°C 90% 2.0 mph 3.2 kmh 6.0 mph9.7 kmh 29.26 in990.9 mb 0.00 in0.0 mm 0.00 in0.0 mm 0.00 in0.0 mm
09:10 PM 19.2°F-7.1°C 16.8°F-8.4°C 90% 3.0 mph 4.8 kmh 6.0 mph9.7 kmh 29.26 in990.9 mb 0.00 in0.0 mm 0.00 in0.0 mm 0.00 in0.0 mm
09:15 PM 19.4°F-7.0°C 17.0°F-8.3°C 90% 2.0 mph 3.2 kmh 6.0 mph9.7 kmh 29.23 in989.8 mb 0.00 in0.0 mm 0.00 in0.0 mm 0.00 in0.0 mm
09:20 PM 19.7°F-6.8°C 17.5°F-8.1°C 91% 3.0 mph 4.8 kmh 7.0 mph11.3 kmh 29.23 in989.8 mb 0.00 in0.0 mm 0.00 in0.0 mm 0.00 in0.0 mm
09:25 PM 20.0°F-6.7°C 17.8°F-7.9°C 91% 2.0 mph 3.2 kmh 4.0 mph6.4 kmh 29.23 in989.8 mb 0.00 in0.0 mm 0.00 in0.0 mm 0.00 in0.0 mm
09:30 PM 20.3°F-6.5°C 18.1°F-7.7°C 91% 2.0 mph 3.2 kmh 5.0 mph8.0 kmh 29.26 in990.9 mb 0.00 in0.0 mm 0.00 in0.0 mm 0.00 in0.0 mm
09:35 PM 20.6°F-6.3°C 18.4°F-7.6°C 91% 3.0 mph 4.8 kmh 6.0 mph9.7 kmh 29.26 in990.9 mb 0.00 in0.0 mm 0.00 in0.0 mm 0.00 in0.0 mm
09:40 PM 20.8°F-6.2°C 18.6°F-7.4°C 91% 3.0 mph 4.8 kmh 6.0 mph9.7 kmh 29.26 in990.9 mb 0.00 in0.0 mm 0.00 in0.0 mm 0.00 in0.0 mm
09:45 PM 20.8°F-6.2°C 18.6°F-7.4°C 91% 3.0 mph 4.8 kmh 6.0 mph9.7 kmh 29.26 in990.9 mb 0.00 in0.0 mm 0.00 in0.0 mm 0.00 in0.0 mm
09:50 PM 20.8°F-6.2°C 18.6°F-7.4°C 91% 3.0 mph 4.8 kmh 10.0 mph16.1 kmh 29.26 in990.9 mb 0.00 in0.0 mm 0.00 in0.0 mm 0.00 in0.0 mm
09:55 PM 20.8°F-6.2°C 18.6°F-7.4°C 91% 3.0 mph 4.8 kmh 7.0 mph11.3 kmh 29.26 in990.9 mb 0.00 in0.0 mm 0.00 in0.0 mm 0.00 in0.0 mm
10:00 PM 20.8°F-6.2°C 18.6°F-7.4°C 91% 2.0 mph 3.2 kmh 5.0 mph8.0 kmh 29.27 in991.2 mb 0.00 in0.0 mm 0.00 in0.0 mm 0.00 in0.0 mm
10:05 PM 21.0°F-6.1°C 19.0°F-7.2°C 92% 2.0 mph 3.2 kmh 5.0 mph8.0 kmh 29.27 in991.2 mb 0.00 in0.0 mm 0.00 in0.0 mm 0.00 in0.0 mm
10:10 PM 21.1°F-6.1°C 19.1°F-7.2°C 92% 3.0 mph 4.8 kmh 7.0 mph11.3 kmh 29.27 in991.2 mb 0.00 in0.0 mm 0.00 in0.0 mm 0.00 in0.0 mm
10:15 PM 21.3°F-5.9°C 19.3°F-7.1°C 92% 3.0 mph 4.8 kmh 9.0 mph14.5 kmh 29.28 in991.5 mb 0.00 in0.0 mm 0.00 in0.0 mm 0.00 in0.0 mm
10:20 PM 21.4°F-5.9°C 19.4°F-7.0°C 92% 4.0 mph 6.4 kmh 9.0 mph14.5 kmh 29.28 in991.5 mb 0.00 in0.0 mm 0.00 in0.0 mm 0.00 in0.0 mm
10:25 PM 21.6°F-5.8°C 19.6°F-6.9°C 92% 4.0 mph 6.4 kmh 7.0 mph11.3 kmh 29.28 in991.5 mb 0.00 in0.0 mm 0.00 in0.0 mm 0.00 in0.0 mm
10:30 PM 21.8°F-5.7°C 19.8°F-6.8°C 92% 2.0 mph 3.2 kmh 5.0 mph8.0 kmh 29.28 in991.5 mb 0.00 in0.0 mm 0.00 in0.0 mm 0.00 in0.0 mm
10:35 PM 21.8°F-5.7°C 19.8°F-6.8°C 92% 4.0 mph 6.4 kmh 8.0 mph12.9 kmh 29.28 in991.5 mb 0.00 in0.0 mm 0.00 in0.0 mm 0.00 in0.0 mm
10:40 PM 21.9°F-5.6°C 19.9°F-6.7°C 92% 3.0 mph 4.8 kmh 6.0 mph9.7 kmh 29.28 in991.5 mb 0.00 in0.0 mm 0.00 in0.0 mm 0.00 in0.0 mm
10:45 PM 21.9°F-5.6°C 19.9°F-6.7°C 92% 2.0 mph 3.2 kmh 6.0 mph9.7 kmh 29.28 in991.5 mb 0.00 in0.0 mm 0.00 in0.0 mm 0.00 in0.0 mm
10:50 PM 22.1°F-5.5°C 20.1°F-6.6°C 92% 2.0 mph 3.2 kmh 4.0 mph6.4 kmh 29.28 in991.5 mb 0.00 in0.0 mm 0.00 in0.0 mm 0.00 in0.0 mm
10:55 PM 22.1°F-5.5°C 20.1°F-6.6°C 92% 3.0 mph 4.8 kmh 5.0 mph8.0 kmh 29.28 in991.5 mb 0.00 in0.0 mm 0.00 in0.0 mm 0.00 in0.0 mm
11:00 PM 22.2°F-5.4°C 20.2°F-6.6°C 92% 2.0 mph 3.2 kmh 5.0 mph8.0 kmh 29.28 in991.5 mb 0.00 in0.0 mm 0.00 in0.0 mm 0.00 in0.0 mm
11:05 PM 22.4°F-5.3°C 20.4°F-6.4°C 92% 2.0 mph 3.2 kmh 5.0 mph8.0 kmh 29.28 in991.5 mb 0.00 in0.0 mm 0.00 in0.0 mm 0.00 in0.0 mm
11:10 PM 22.4°F-5.3°C 20.4°F-6.4°C 92% 3.0 mph 4.8 kmh 8.0 mph12.9 kmh 29.28 in991.5 mb 0.00 in0.0 mm 0.00 in0.0 mm 0.00 in0.0 mm
11:15 PM 22.5°F-5.3°C 20.5°F-6.4°C 92% 3.0 mph 4.8 kmh 7.0 mph11.3 kmh 29.28 in991.5 mb 0.00 in0.0 mm 0.00 in0.0 mm 0.00 in0.0 mm
11:20 PM 22.7°F-5.2°C 20.7°F-6.3°C 92% 2.0 mph 3.2 kmh 4.0 mph6.4 kmh 29.28 in991.5 mb 0.00 in0.0 mm 0.00 in0.0 mm 0.00 in0.0 mm
11:25 PM 22.7°F-5.2°C 20.7°F-6.3°C 92% 3.0 mph 4.8 kmh 6.0 mph9.7 kmh 29.28 in991.5 mb 0.00 in0.0 mm 0.00 in0.0 mm 0.00 in0.0 mm
11:30 PM 22.9°F-5.1°C 20.9°F-6.2°C 92% 4.0 mph 6.4 kmh 9.0 mph14.5 kmh 29.29 in991.9 mb 0.00 in0.0 mm 0.00 in0.0 mm 0.00 in0.0 mm
11:35 PM 22.9°F-5.1°C 20.9°F-6.2°C 92% 2.0 mph 3.2 kmh 7.0 mph11.3 kmh 29.29 in991.9 mb 0.00 in0.0 mm 0.00 in0.0 mm 0.00 in0.0 mm
11:40 PM 23.0°F-5.0°C 20.8°F-6.2°C 91% 3.0 mph 4.8 kmh 7.0 mph11.3 kmh 29.29 in991.9 mb 0.00 in0.0 mm 0.00 in0.0 mm 0.00 in0.0 mm
11:45 PM 22.9°F-5.1°C 20.7°F-6.3°C 91% 4.0 mph 6.4 kmh 9.0 mph14.5 kmh 29.29 in991.9 mb 0.00 in0.0 mm 0.00 in0.0 mm 0.00 in0.0 mm
11:50 PM 22.9°F-5.1°C 20.7°F-6.3°C 91% 3.0 mph 4.8 kmh 7.0 mph11.3 kmh 29.29 in991.9 mb 0.00 in0.0 mm 0.00 in0.0 mm 0.00 in0.0 mm
11:55 PM 22.9°F-5.1°C 20.4°F-6.4°C 90% 2.0 mph 3.2 kmh 7.0 mph11.3 kmh 29.29 in991.9 mb 0.00 in0.0 mm 0.00 in0.0 mm 0.00 in0.0 mm